createdAt,value
2017-04-03T00:00:41.070Z,11.55
2017-04-03T00:01:41.172Z,9.95
2017-04-03T00:02:41.292Z,9.78
2017-04-03T00:03:41.362Z,13.93
2017-04-03T00:04:41.628Z,11.23
2017-04-03T00:05:41.825Z,11.70
2017-04-03T00:06:41.810Z,11.72
2017-04-03T00:07:41.839Z,12.60
2017-04-03T00:08:41.871Z,12.72
2017-04-03T00:09:41.957Z,10.60
2017-04-03T00:10:41.994Z,9.98
2017-04-03T00:11:42.017Z,12.32
2017-04-03T00:12:42.738Z,11.47
2017-04-03T00:13:43.429Z,13.05
2017-04-03T00:14:43.428Z,15.35
2017-04-03T00:15:43.406Z,13.02
2017-04-03T00:16:43.407Z,12.07
2017-04-03T00:17:43.401Z,11.12
2017-04-03T00:18:43.403Z,11.10
2017-04-03T00:19:44.194Z,10.88
2017-04-03T00:20:45.008Z,11.60
2017-04-03T00:21:44.997Z,12.33
2017-04-03T00:22:45.006Z,11.73
2017-04-03T00:23:45.051Z,8.95
2017-04-03T00:24:45.059Z,12.83
2017-04-03T00:25:45.091Z,11.42
2017-04-03T00:26:45.191Z,10.77
2017-04-03T00:27:45.941Z,10.78
2017-04-03T00:28:45.986Z,14.40
2017-04-03T00:29:46.041Z,10.95
2017-04-03T00:30:46.765Z,14.07
2017-04-03T00:31:47.503Z,13.18
2017-04-03T00:32:47.491Z,12.33
2017-04-03T00:33:47.516Z,16.05
2017-04-03T00:34:47.529Z,12.30
2017-04-03T00:35:47.487Z,12.57
2017-04-03T00:36:47.509Z,16.28
2017-04-03T00:37:47.591Z,13.23
2017-04-03T00:38:47.805Z,14.40
2017-04-03T00:39:47.845Z,12.03
2017-04-03T00:40:47.875Z,10.95
2017-04-03T00:41:47.897Z,13.93
2017-04-03T00:42:48.034Z,13.30
2017-04-03T00:43:48.044Z,15.47
2017-04-03T00:44:48.288Z,14.05
2017-04-03T00:45:48.157Z,12.87
2017-04-03T00:46:48.165Z,17.28
2017-04-03T00:47:48.127Z,12.47
2017-04-03T00:48:48.097Z,12.78
2017-04-03T00:49:48.099Z,13.05
2017-04-03T00:50:48.906Z,15.45
2017-04-03T00:51:51.930Z,11.18
2017-04-03T00:52:51.910Z,13.40
2017-04-03T00:53:51.912Z,16.65
2017-04-03T00:54:51.882Z,14.55
2017-04-03T00:55:51.917Z,13.42
2017-04-03T00:56:51.889Z,15.70
2017-04-03T00:57:51.985Z,14.60
2017-04-03T00:58:52.037Z,14.93
2017-04-03T00:59:52.034Z,15.58
2017-04-03T01:00:52.827Z,15.97
2017-04-03T01:01:52.830Z,13.12
2017-04-03T01:02:52.823Z,15.40
2017-04-03T01:03:52.873Z,18.03
2017-04-03T01:04:52.893Z,13.57
2017-04-03T01:05:52.898Z,18.07
2017-04-03T01:06:52.905Z,14.90
2017-04-03T01:07:52.926Z,15.60
2017-04-03T01:08:52.951Z,18.37
2017-04-03T01:09:53.649Z,17.37
2017-04-03T01:10:55.604Z,15.73
2017-04-03T01:11:55.740Z,19.42
2017-04-03T01:12:55.715Z,19.40
2017-04-03T01:13:55.690Z,17.90
2017-04-03T01:14:55.685Z,17.15
2017-04-03T01:15:55.759Z,15.37
2017-04-03T01:16:55.766Z,16.58
2017-04-03T01:17:56.507Z,14.28
2017-04-03T01:18:56.497Z,17.13
2017-04-03T01:19:57.229Z,18.82
2017-04-03T01:20:57.244Z,15.15
2017-04-03T01:21:57.255Z,18.23
2017-04-03T01:22:57.270Z,19.82
2017-04-03T01:23:57.289Z,17.37
2017-04-03T01:24:57.310Z,16.45
2017-04-03T01:25:57.269Z,16.50
2017-04-03T01:26:57.305Z,17.08
2017-04-03T01:27:57.307Z,16.60
2017-04-03T01:28:57.334Z,17.68
2017-04-03T01:29:57.321Z,16.67
2017-04-03T01:30:57.367Z,17.20
2017-04-03T01:31:57.417Z,14.97
2017-04-03T01:32:57.365Z,17.63
2017-04-03T01:33:57.360Z,16.38
2017-04-03T01:34:57.394Z,18.30
2017-04-03T01:35:57.505Z,18.72
2017-04-03T01:36:57.512Z,17.75
2017-04-03T01:37:57.472Z,20.15
2017-04-03T01:38:57.509Z,22.03
2017-04-03T01:39:57.485Z,19.97
2017-04-03T01:40:57.492Z,19.50
2017-04-03T01:41:57.481Z,17.90
2017-04-03T01:42:57.477Z,20.82
2017-04-03T01:43:57.571Z,22.20
2017-04-03T01:44:57.581Z,21.83
2017-04-03T01:45:57.572Z,18.10
2017-04-03T01:46:57.579Z,19.92
2017-04-03T01:47:57.586Z,21.33
2017-04-03T01:48:57.566Z,19.43
2017-04-03T01:49:57.561Z,22.78
2017-04-03T01:50:57.589Z,19.60
2017-04-03T01:51:57.570Z,22.78
2017-04-03T01:52:57.611Z,21.87
2017-04-03T01:53:57.563Z,25.70
2017-04-03T01:54:57.513Z,19.60
2017-04-03T01:55:57.505Z,21.23
2017-04-03T01:56:57.436Z,21.82
2017-04-03T01:57:57.436Z,20.67
2017-04-03T01:58:57.390Z,21.88
2017-04-03T01:59:57.361Z,22.00
2017-04-03T02:00:57.362Z,24.43
2017-04-03T02:01:57.278Z,22.27
2017-04-03T02:02:57.518Z,25.07
2017-04-03T02:03:58.007Z,26.10
2017-04-03T02:04:58.688Z,23.55
2017-04-03T02:05:58.625Z,23.33
2017-04-03T02:06:58.586Z,27.92
2017-04-03T02:07:58.571Z,25.10
2017-04-03T02:08:59.285Z,29.38
2017-04-03T02:09:59.978Z,31.58
2017-04-03T02:10:59.950Z,30.22
2017-04-03T02:11:59.923Z,27.97
2017-04-03T02:13:00.622Z,30.33
2017-04-03T02:14:00.590Z,33.77
2017-04-03T02:15:00.529Z,41.48
2017-04-03T02:16:00.532Z,41.52
2017-04-03T02:17:00.513Z,46.45
2017-04-03T02:18:00.477Z,49.15
2017-04-03T02:19:00.495Z,55.58
2017-04-03T02:20:00.448Z,52.77
2017-04-03T02:21:00.438Z,65.65
2017-04-03T02:22:00.389Z,66.92
2017-04-03T02:23:01.109Z,74.12
2017-04-03T02:24:01.069Z,81.98
2017-04-03T02:25:01.069Z,83.57
2017-04-03T02:26:01.003Z,84.90
2017-04-03T02:27:07.533Z,84.47
2017-04-03T02:28:07.521Z,87.92
2017-04-03T02:29:07.565Z,104.42
2017-04-03T02:30:07.591Z,96.87
2017-04-03T02:31:07.542Z,64.63
2017-04-03T02:32:07.488Z,71.85
2017-04-03T02:33:07.477Z,61.37
2017-04-03T02:34:07.486Z,65.33
2017-04-03T02:35:07.470Z,70.10
2017-04-03T02:36:07.402Z,77.45
2017-04-03T02:37:07.356Z,75.27
2017-04-03T02:38:08.019Z,83.80
2017-04-03T02:39:08.072Z,86.98
2017-04-03T02:40:08.031Z,94.37
2017-04-03T02:41:07.997Z,86.42
2017-04-03T02:42:07.939Z,86.80
2017-04-03T02:43:07.950Z,83.58
2017-04-03T02:44:07.931Z,106.93
2017-04-03T02:45:07.887Z,94.52
2017-04-03T02:46:07.855Z,91.17
2017-04-03T02:47:07.814Z,103.82
2017-04-03T02:48:07.763Z,95.50
2017-04-03T02:49:07.746Z,87.98
2017-04-03T02:50:07.702Z,90.07
2017-04-03T02:51:07.686Z,90.33
2017-04-03T02:52:07.669Z,98.88
2017-04-03T02:53:07.663Z,93.92
2017-04-03T02:54:08.431Z,87.23
2017-04-03T02:55:08.485Z,91.53
2017-04-03T02:56:08.490Z,85.42
2017-04-03T02:57:08.490Z,84.98
2017-04-03T02:58:08.482Z,90.87
2017-04-03T02:59:08.474Z,79.32
2017-04-03T03:00:08.598Z,99.83
2017-04-03T03:01:08.643Z,81.73
2017-04-03T03:02:09.542Z,76.72
2017-04-03T03:03:09.552Z,88.58
2017-04-03T03:04:09.561Z,78.17
2017-04-03T03:05:09.635Z,89.83
2017-04-03T03:06:09.617Z,103.25
2017-04-03T03:07:09.605Z,89.88
2017-04-03T03:08:09.575Z,85.80
2017-04-03T03:09:09.573Z,85.45
2017-04-03T03:10:09.626Z,89.15
2017-04-03T03:11:10.474Z,88.67
2017-04-03T03:12:10.458Z,86.62
2017-04-03T03:13:10.470Z,86.15
2017-04-03T03:14:10.468Z,74.27
2017-04-03T03:15:10.498Z,88.45
2017-04-03T03:16:10.525Z,83.97
2017-04-03T03:17:10.513Z,80.00
2017-04-03T03:18:10.500Z,86.58
2017-04-03T03:19:10.491Z,83.25
2017-04-03T03:20:10.546Z,87.68
2017-04-03T03:21:10.561Z,91.93
2017-04-03T03:22:10.597Z,83.48
2017-04-03T03:23:10.607Z,82.05
2017-04-03T03:24:10.633Z,82.42
2017-04-03T03:25:10.676Z,80.10
2017-04-03T03:26:10.947Z,77.23
2017-04-03T03:27:10.934Z,79.35
2017-04-03T03:28:10.948Z,76.37
2017-04-03T03:29:10.953Z,74.70
2017-04-03T03:30:11.005Z,78.10
2017-04-03T03:31:11.013Z,89.62
2017-04-03T03:32:10.990Z,79.17
2017-04-03T03:33:11.002Z,88.70
2017-04-03T03:34:10.963Z,79.68
2017-04-03T03:35:10.961Z,86.20
2017-04-03T03:36:10.950Z,73.12
2017-04-03T03:37:10.946Z,72.32
2017-04-03T03:38:10.921Z,69.85
2017-04-03T03:39:10.950Z,76.48
2017-04-03T03:40:11.742Z,82.72
2017-04-03T03:41:11.761Z,81.85
2017-04-03T03:42:11.875Z,74.17
2017-04-03T03:43:11.869Z,73.40
2017-04-03T03:44:11.793Z,73.45
2017-04-03T03:45:11.927Z,63.73
2017-04-03T03:46:12.649Z,71.08
2017-04-03T03:47:13.330Z,70.00
2017-04-03T03:48:13.296Z,71.68
2017-04-03T03:49:13.261Z,58.40
2017-04-03T03:50:14.058Z,60.93
2017-04-03T03:51:14.031Z,62.97
2017-04-03T03:52:14.046Z,71.55
2017-04-03T03:53:14.061Z,68.05
2017-04-03T03:54:14.033Z,73.45
2017-04-03T03:55:14.022Z,64.95
2017-04-03T03:56:19.442Z,71.40
2017-04-03T03:57:24.779Z,65.35
2017-04-03T03:58:31.604Z,66.78
2017-04-03T03:59:31.758Z,66.83
2017-04-03T04:00:31.754Z,75.55
2017-04-03T04:01:31.796Z,60.02
2017-04-03T04:02:31.738Z,71.65
2017-04-03T04:03:31.736Z,62.88
2017-04-03T04:04:31.716Z,75.45
2017-04-03T04:05:32.436Z,64.82
2017-04-03T04:06:32.399Z,70.40
2017-04-03T04:07:32.374Z,74.47
2017-04-03T04:08:32.406Z,82.92
2017-04-03T04:09:32.410Z,74.43
2017-04-03T04:10:32.488Z,78.50
2017-04-03T04:11:32.476Z,82.15
2017-04-03T04:12:32.406Z,86.20
2017-04-03T04:13:32.384Z,80.58
2017-04-03T04:14:33.049Z,83.52
2017-04-03T04:15:33.022Z,82.98
2017-04-03T04:16:32.990Z,90.43
2017-04-03T04:17:33.744Z,70.20
2017-04-03T04:18:33.701Z,79.08
2017-04-03T04:19:33.662Z,82.22
2017-04-03T04:20:33.644Z,80.17
2017-04-03T04:21:34.359Z,80.27
2017-04-03T04:22:34.354Z,79.12
2017-04-03T04:23:34.299Z,77.50
2017-04-03T04:24:34.267Z,78.62
2017-04-03T04:25:34.313Z,98.08
2017-04-03T04:26:35.067Z,77.63
2017-04-03T04:27:35.013Z,72.98
2017-04-03T04:28:34.954Z,82.97
2017-04-03T04:29:34.942Z,83.65
2017-04-03T04:30:35.684Z,84.88
2017-04-03T04:31:35.765Z,85.13
2017-04-03T04:32:36.463Z,92.33
2017-04-03T04:33:36.435Z,94.22
2017-04-03T04:34:36.370Z,83.30
2017-04-03T04:35:36.330Z,94.90
2017-04-03T04:36:36.314Z,90.18
2017-04-03T04:37:36.295Z,83.82
2017-04-03T04:38:36.244Z,77.87
2017-04-03T04:39:36.225Z,94.55
2017-04-03T04:40:36.210Z,97.83
2017-04-03T04:41:36.216Z,84.33
2017-04-03T04:42:36.209Z,79.93
2017-04-03T04:43:36.191Z,82.43
2017-04-03T04:44:36.125Z,72.62
2017-04-03T04:45:36.741Z,80.63
2017-04-03T04:46:36.734Z,86.57
2017-04-03T04:47:36.662Z,75.53
2017-04-03T04:48:36.603Z,82.43
2017-04-03T04:49:37.544Z,74.35
2017-04-03T04:50:37.497Z,73.92
2017-04-03T04:51:37.502Z,79.97
2017-04-03T04:52:37.490Z,78.23
2017-04-03T04:53:37.457Z,68.73
2017-04-03T04:54:38.143Z,87.60
2017-04-03T04:55:38.070Z,85.80
2017-04-03T04:56:38.784Z,86.28
2017-04-03T04:57:38.738Z,87.82
2017-04-03T04:58:38.730Z,77.37
2017-04-03T04:59:39.453Z,87.32
2017-04-03T05:00:39.363Z,80.13
2017-04-03T05:01:39.363Z,86.70
2017-04-03T05:02:39.443Z,80.20
2017-04-03T05:03:39.432Z,83.03
2017-04-03T05:04:39.475Z,75.27
2017-04-03T05:05:39.411Z,75.67
2017-04-03T05:06:39.350Z,68.13
2017-04-03T05:07:40.539Z,70.27
2017-04-03T05:08:40.515Z,70.65
2017-04-03T05:09:40.448Z,82.28
2017-04-03T05:10:41.460Z,75.03
2017-04-03T05:11:41.448Z,69.62
2017-04-03T05:12:42.162Z,76.30
2017-04-03T05:13:42.171Z,80.63
2017-04-03T05:14:42.124Z,75.78
2017-04-03T05:15:42.135Z,73.40
2017-04-03T05:16:42.047Z,71.37
2017-04-03T05:17:42.006Z,76.48
2017-04-03T05:18:42.025Z,72.10
2017-04-03T05:19:42.000Z,69.03
2017-04-03T05:20:41.967Z,71.70
2017-04-03T05:21:41.963Z,67.57
2017-04-03T05:22:41.983Z,67.92
2017-04-03T05:23:41.951Z,61.80
2017-04-03T05:24:42.042Z,56.18
2017-04-03T05:25:41.999Z,62.77
2017-04-03T05:26:42.021Z,63.60
2017-04-03T05:27:41.974Z,67.40
2017-04-03T05:28:41.973Z,69.28
2017-04-03T05:29:41.887Z,61.65
2017-04-03T05:30:41.833Z,65.62
2017-04-03T05:31:41.825Z,61.12
2017-04-03T05:32:41.822Z,58.93
2017-04-03T05:33:41.806Z,63.75
2017-04-03T05:34:42.532Z,60.88
2017-04-03T05:35:42.561Z,62.00
2017-04-03T05:36:42.485Z,59.23
2017-04-03T05:37:42.453Z,59.80
2017-04-03T05:38:42.690Z,62.67
2017-04-03T05:39:42.706Z,53.90
2017-04-03T05:40:42.694Z,53.95
2017-04-03T05:41:42.746Z,55.75
2017-04-03T05:42:42.773Z,53.93
2017-04-03T05:43:42.783Z,58.92
2017-04-03T05:44:42.710Z,57.77
2017-04-03T05:45:42.840Z,53.93
2017-04-03T05:46:42.793Z,48.72
2017-04-03T05:47:42.766Z,43.88
2017-04-03T05:48:43.282Z,49.22
2017-04-03T05:49:43.214Z,53.18
2017-04-03T05:50:43.149Z,51.52
2017-04-03T05:51:43.126Z,52.55
2017-04-03T05:52:43.128Z,52.10
2017-04-03T05:53:43.071Z,48.57
2017-04-03T05:54:43.012Z,46.05
2017-04-03T05:55:49.623Z,49.48
2017-04-03T05:56:49.594Z,48.98
2017-04-03T05:57:49.581Z,46.52
2017-04-03T05:58:49.486Z,50.28
2017-04-03T05:59:49.423Z,51.83
2017-04-03T06:00:49.354Z,52.45
2017-04-03T06:01:49.578Z,49.88
2017-04-03T06:02:49.587Z,58.83
2017-04-03T06:03:49.524Z,51.47
2017-04-03T06:04:49.479Z,50.17
2017-04-03T06:05:49.399Z,52.18
2017-04-03T06:06:49.326Z,53.87
2017-04-03T06:07:49.676Z,49.25
2017-04-03T06:08:49.609Z,48.35
2017-04-03T06:09:49.562Z,46.52
2017-04-03T06:10:49.554Z,49.40
2017-04-03T06:11:50.269Z,52.08
2017-04-03T06:12:50.270Z,48.68
2017-04-03T06:13:50.228Z,42.38
2017-04-03T06:14:50.190Z,46.13
2017-04-03T06:15:50.137Z,52.40
2017-04-03T06:16:50.086Z,51.70
2017-04-03T06:17:50.053Z,45.55
2017-04-03T06:18:50.016Z,45.45
2017-04-03T06:19:50.022Z,47.85
2017-04-03T06:20:51.241Z,47.68
2017-04-03T06:21:51.282Z,42.28
2017-04-03T06:22:51.257Z,43.58
2017-04-03T06:23:51.240Z,47.25
2017-04-03T06:24:51.241Z,46.80
2017-04-03T06:25:51.194Z,48.63
2017-04-03T06:26:51.137Z,48.05
2017-04-03T06:27:51.169Z,42.48
2017-04-03T06:28:51.250Z,45.12
2017-04-03T06:29:51.222Z,44.55
2017-04-03T06:30:51.189Z,48.97
2017-04-03T06:31:51.134Z,51.22
2017-04-03T06:32:51.164Z,50.08
2017-04-03T06:33:51.074Z,55.52
2017-04-03T06:34:51.107Z,48.07
2017-04-03T06:35:51.066Z,50.10
2017-04-03T06:36:51.028Z,46.27
2017-04-03T06:37:57.531Z,49.55
2017-04-03T06:38:57.473Z,48.45
2017-04-03T06:39:57.495Z,44.08
2017-04-03T06:40:57.534Z,48.48
2017-04-03T06:41:57.486Z,43.23
2017-04-03T06:42:57.593Z,43.70
2017-04-03T06:43:57.707Z,49.95
2017-04-03T06:44:57.670Z,49.43
2017-04-03T06:45:57.627Z,46.42
2017-04-03T06:46:57.634Z,47.90
2017-04-03T06:47:57.603Z,45.80
2017-04-03T06:48:59.653Z,46.13
2017-04-03T06:49:59.744Z,45.90
2017-04-03T06:50:59.956Z,44.48
2017-04-03T06:52:00.588Z,46.83
2017-04-03T06:53:00.576Z,44.98
2017-04-03T06:54:01.307Z,47.17
2017-04-03T06:55:01.246Z,45.98
2017-04-03T06:56:01.210Z,52.27
2017-04-03T06:57:01.153Z,52.42
2017-04-03T06:58:01.114Z,55.47
2017-04-03T06:59:01.140Z,59.18
2017-04-03T07:00:01.232Z,59.32
2017-04-03T07:01:02.054Z,55.72
2017-04-03T07:02:02.816Z,57.72
2017-04-03T07:03:02.806Z,57.00
2017-04-03T07:04:02.808Z,54.10
2017-04-03T07:05:02.759Z,56.33
2017-04-03T07:06:02.730Z,66.38
2017-04-03T07:07:02.742Z,67.18
2017-04-03T07:08:02.725Z,70.12
2017-04-03T07:09:02.636Z,63.17
2017-04-03T07:10:02.618Z,68.03
2017-04-03T07:11:02.540Z,86.73
2017-04-03T07:12:02.514Z,64.53
2017-04-03T07:13:02.484Z,63.10
2017-04-03T07:14:02.413Z,68.98
2017-04-03T07:15:02.369Z,64.92
2017-04-03T07:16:02.290Z,63.77
2017-04-03T07:17:02.266Z,73.15
2017-04-03T07:18:02.246Z,66.23
2017-04-03T07:19:02.224Z,66.13
2017-04-03T07:20:02.157Z,68.70
2017-04-03T07:21:02.245Z,75.65
2017-04-03T07:22:02.168Z,64.67
2017-04-03T07:23:02.161Z,66.13
2017-04-03T07:24:02.139Z,61.32
2017-04-03T07:25:02.114Z,66.68
2017-04-03T07:26:02.806Z,62.48
2017-04-03T07:27:02.753Z,69.12
2017-04-03T07:28:02.731Z,68.72
2017-04-03T07:29:02.666Z,57.25
2017-04-03T07:30:02.643Z,68.82
2017-04-03T07:31:02.648Z,61.03
2017-04-03T07:32:02.631Z,66.20
2017-04-03T07:33:02.590Z,67.03
2017-04-03T07:34:02.918Z,57.87
2017-04-03T07:35:02.866Z,63.87
2017-04-03T07:36:02.873Z,61.93
2017-04-03T07:37:02.838Z,57.55
2017-04-03T07:38:02.832Z,59.75
2017-04-03T07:39:02.817Z,57.87
2017-04-03T07:40:02.766Z,55.87
2017-04-03T07:41:02.826Z,59.83
2017-04-03T07:42:02.790Z,56.25
2017-04-03T07:43:02.772Z,59.15
2017-04-03T07:44:02.724Z,55.57
2017-04-03T07:45:02.675Z,54.95
2017-04-03T07:46:02.706Z,54.08
2017-04-03T07:47:02.701Z,57.72
2017-04-03T07:48:02.629Z,51.95
2017-04-03T07:49:02.595Z,55.72
2017-04-03T07:50:02.530Z,52.02
2017-04-03T07:51:02.545Z,54.85
2017-04-03T07:52:02.494Z,53.32
2017-04-03T07:53:02.523Z,55.23
2017-04-03T07:54:02.523Z,54.53
2017-04-03T07:55:02.544Z,49.00
2017-04-03T07:56:02.571Z,49.97
2017-04-03T07:57:02.619Z,56.17
2017-04-03T07:58:02.714Z,52.97
2017-04-03T07:59:02.753Z,51.48
2017-04-03T08:00:02.697Z,48.80
2017-04-03T08:01:02.740Z,51.60
2017-04-03T08:02:02.697Z,52.70
2017-04-03T08:03:02.718Z,53.05
2017-04-03T08:04:02.777Z,51.52
2017-04-03T08:05:03.499Z,53.68
2017-04-03T08:06:03.502Z,51.25
2017-04-03T08:07:03.466Z,51.33
2017-04-03T08:08:03.498Z,50.37
2017-04-03T08:09:03.716Z,48.22
2017-04-03T08:10:03.710Z,55.28
2017-04-03T08:11:17.636Z,49.87
2017-04-03T08:12:18.765Z,50.50
2017-04-03T08:13:18.789Z,53.28
2017-04-03T08:14:18.745Z,49.50
2017-04-03T08:15:18.950Z,49.40
2017-04-03T08:16:19.063Z,50.02
2017-04-03T08:17:19.074Z,45.52
2017-04-03T08:18:19.079Z,46.45
2017-04-03T08:19:19.035Z,45.72
2017-04-03T08:20:19.143Z,45.82
2017-04-03T08:21:19.280Z,47.70
2017-04-03T08:22:19.251Z,47.10
2017-04-03T08:23:19.199Z,40.82
2017-04-03T08:24:19.212Z,43.67
2017-04-03T08:25:19.204Z,42.67
2017-04-03T08:26:19.263Z,44.03
2017-04-03T08:27:19.269Z,42.15
2017-04-03T08:28:19.290Z,43.10
2017-04-03T08:29:19.293Z,46.12
2017-04-03T08:30:19.274Z,45.13
2017-04-03T08:31:19.316Z,47.50
2017-04-03T08:32:19.287Z,46.73
2017-04-03T08:33:19.248Z,44.88
2017-04-03T08:34:19.296Z,45.65
2017-04-03T08:35:19.305Z,49.37
2017-04-03T08:36:19.310Z,48.03
2017-04-03T08:37:19.267Z,54.70
2017-04-03T08:38:19.274Z,50.73
2017-04-03T08:39:19.263Z,50.88
2017-04-03T08:40:19.250Z,49.17
2017-04-03T08:41:19.324Z,51.73
2017-04-03T08:42:19.331Z,50.23
2017-04-03T08:43:19.419Z,59.07
2017-04-03T08:44:19.443Z,56.28
2017-04-03T08:45:19.816Z,57.08
2017-04-03T08:46:19.818Z,51.63
2017-04-03T08:47:19.878Z,57.77
2017-04-03T08:48:19.899Z,58.95
2017-04-03T08:49:19.892Z,57.67
2017-04-03T08:50:20.584Z,56.25
2017-04-03T08:51:20.536Z,60.03
2017-04-03T08:52:20.469Z,59.47
2017-04-03T08:53:20.450Z,55.47
2017-04-03T08:54:20.409Z,63.50
2017-04-03T08:55:20.368Z,58.23
2017-04-03T08:56:20.360Z,56.97
2017-04-03T08:57:20.413Z,51.60
2017-04-03T08:58:20.435Z,57.48
2017-04-03T08:59:20.387Z,56.25
2017-04-03T09:00:20.722Z,55.57
2017-04-03T09:01:20.685Z,44.72
2017-04-03T09:02:20.670Z,52.70
2017-04-03T09:03:20.598Z,48.22
2017-04-03T09:04:20.542Z,47.73
2017-04-03T09:05:20.473Z,51.95
2017-04-03T09:06:20.446Z,51.28
2017-04-03T09:07:20.435Z,53.20
2017-04-03T09:08:20.383Z,54.53
2017-04-03T09:09:20.332Z,53.43
2017-04-03T09:10:20.293Z,56.58
2017-04-03T09:11:20.310Z,51.03
2017-04-03T09:12:20.280Z,55.57
2017-04-03T09:13:20.231Z,57.05
2017-04-03T09:14:20.936Z,56.25
2017-04-03T09:15:21.140Z,52.32
2017-04-03T09:16:21.144Z,54.62
2017-04-03T09:17:21.094Z,48.45
2017-04-03T09:18:21.395Z,49.82
2017-04-03T09:19:21.378Z,43.97
2017-04-03T09:20:21.339Z,44.52
2017-04-03T09:21:21.365Z,47.75
2017-04-03T09:22:21.378Z,44.37
2017-04-03T09:23:21.328Z,46.77
2017-04-03T09:24:21.290Z,42.43
2017-04-03T09:25:23.814Z,45.28
2017-04-03T09:26:23.788Z,46.52
2017-04-03T09:27:23.790Z,50.15
2017-04-03T09:28:24.066Z,48.75
2017-04-03T09:29:24.317Z,41.55
2017-04-03T09:30:24.229Z,37.48
2017-04-03T09:31:24.194Z,32.90
2017-04-03T09:32:24.183Z,34.03
2017-04-03T09:33:24.123Z,37.02
2017-04-03T09:34:24.109Z,32.10
2017-04-03T09:35:24.101Z,32.20
2017-04-03T09:36:24.054Z,27.87
2017-04-03T09:37:24.077Z,35.80
2017-04-03T09:38:24.034Z,34.57
2017-04-03T09:39:24.010Z,34.70
2017-04-03T09:40:23.989Z,33.17
2017-04-03T09:41:24.092Z,30.65
2017-04-03T09:42:24.085Z,28.57
2017-04-03T09:43:24.050Z,30.70
2017-04-03T09:44:23.998Z,30.83
2017-04-03T09:45:24.013Z,26.87
2017-04-03T09:46:24.006Z,29.70
2017-04-03T09:47:23.994Z,29.45
2017-04-03T09:48:24.222Z,32.22
2017-04-03T09:49:24.177Z,35.20
2017-04-03T09:50:24.130Z,33.00
2017-04-03T09:51:24.085Z,34.42
2017-04-03T09:52:24.844Z,34.03
2017-04-03T09:53:24.870Z,40.37
2017-04-03T09:54:24.988Z,35.92
2017-04-03T09:55:25.026Z,34.78
2017-04-03T09:56:24.989Z,38.58
2017-04-03T09:57:24.996Z,33.90
2017-04-03T09:58:24.998Z,34.75
2017-04-03T09:59:24.996Z,34.02
2017-04-03T10:00:25.045Z,36.65
2017-04-03T10:01:25.147Z,38.05
2017-04-03T10:02:25.150Z,38.43
2017-04-03T10:03:25.225Z,35.63
2017-04-03T10:04:25.244Z,38.20
2017-04-03T10:05:25.260Z,35.80
2017-04-03T10:06:25.390Z,38.13
2017-04-03T10:07:25.413Z,38.18
2017-04-03T10:08:25.445Z,38.65
2017-04-03T10:09:25.466Z,36.00
2017-04-03T10:10:25.478Z,38.58
2017-04-03T10:11:59.868Z,37.62
2017-04-03T10:13:01.409Z,41.48
2017-04-03T10:14:01.397Z,39.37
2017-04-03T10:15:01.378Z,41.90
2017-04-03T10:16:01.347Z,42.85
2017-04-03T10:17:01.432Z,38.90
2017-04-03T10:18:01.488Z,37.42
2017-04-03T10:19:02.087Z,41.38
2017-04-03T10:20:02.081Z,41.43
2017-04-03T10:21:02.045Z,43.43
2017-04-03T10:22:02.067Z,42.05
2017-04-03T10:23:02.028Z,38.77
2017-04-03T10:24:02.008Z,37.17
2017-04-03T10:25:02.049Z,38.32
2017-04-03T10:26:02.055Z,41.97
2017-04-03T10:27:02.029Z,41.45
2017-04-03T10:28:02.038Z,40.62
2017-04-03T10:29:02.081Z,39.62
2017-04-03T10:30:02.062Z,41.15
2017-04-03T10:31:02.074Z,37.87
2017-04-03T10:32:02.094Z,40.27
2017-04-03T10:33:02.052Z,45.88
2017-04-03T10:34:02.071Z,37.67
2017-04-03T10:35:02.078Z,41.07
2017-04-03T10:36:02.107Z,41.67
2017-04-03T10:37:02.178Z,36.45
2017-04-03T10:38:03.106Z,38.58
2017-04-03T10:39:03.090Z,38.80
2017-04-03T10:40:03.090Z,39.35
2017-04-03T10:41:03.084Z,37.87
2017-04-03T10:42:03.005Z,37.13
2017-04-03T10:43:03.746Z,35.72
2017-04-03T10:44:03.861Z,35.52
2017-04-03T10:45:03.874Z,39.32
2017-04-03T10:46:03.882Z,34.43
2017-04-03T10:47:03.926Z,38.93
2017-04-03T10:48:03.934Z,36.40
2017-04-03T10:49:13.198Z,34.80
2017-04-03T10:50:13.180Z,35.78
2017-04-03T10:51:13.223Z,35.00
2017-04-03T10:52:13.221Z,35.90
2017-04-03T10:53:13.933Z,36.60
2017-04-03T10:54:13.941Z,35.68
2017-04-03T10:55:13.922Z,33.53
2017-04-03T10:56:13.949Z,35.93
2017-04-03T10:57:13.930Z,36.82
2017-04-03T10:58:13.887Z,35.62
2017-04-03T10:59:13.889Z,35.87
2017-04-03T11:00:13.896Z,31.77
2017-04-03T11:01:13.938Z,35.35
2017-04-03T11:02:13.889Z,34.90
2017-04-03T11:03:14.006Z,36.27
2017-04-03T11:04:14.052Z,29.48
2017-04-03T11:05:14.062Z,29.90
2017-04-03T11:06:14.104Z,33.57
2017-04-03T11:07:14.175Z,27.67
2017-04-03T11:08:14.198Z,31.76
2017-04-03T11:09:14.256Z,30.12
2017-04-03T11:10:14.312Z,32.81
2017-04-03T11:11:14.348Z,30.94
2017-04-03T11:12:14.310Z,30.81
2017-04-03T11:13:15.160Z,30.93
2017-04-03T11:14:15.227Z,32.40
2017-04-03T11:15:15.237Z,29.00
2017-04-03T11:16:15.196Z,30.87
2017-04-03T11:17:15.200Z,35.04
2017-04-03T11:18:15.134Z,33.24
2017-04-03T11:19:15.147Z,31.20
2017-04-03T11:20:15.132Z,34.16
2017-04-03T11:21:15.122Z,32.51
2017-04-03T11:22:15.097Z,35.61
2017-04-03T11:23:15.137Z,35.73
2017-04-03T11:24:15.170Z,33.14
2017-04-03T11:25:15.238Z,34.62
2017-04-03T11:26:15.366Z,31.09
2017-04-03T11:27:15.341Z,30.49
2017-04-03T11:28:15.728Z,36.80
2017-04-03T11:29:15.681Z,32.27
2017-04-03T11:30:15.718Z,33.67
2017-04-03T11:31:15.716Z,30.91
2017-04-03T11:32:15.737Z,33.34
2017-04-03T11:33:15.903Z,30.40
2017-04-03T11:34:16.019Z,29.63
2017-04-03T11:35:16.219Z,30.39
2017-04-03T11:36:16.291Z,29.87
2017-04-03T11:37:16.259Z,35.49
2017-04-03T11:38:16.259Z,32.57
2017-04-03T11:39:16.832Z,33.73
2017-04-03T11:40:16.893Z,29.56
2017-04-03T11:41:16.851Z,30.23
2017-04-03T11:42:16.926Z,33.06
2017-04-03T11:43:17.106Z,31.41
2017-04-03T11:44:17.178Z,28.63
2017-04-03T11:45:23.184Z,29.70
2017-04-03T11:46:28.545Z,31.43
2017-04-03T11:47:34.081Z,30.09
2017-04-03T11:49:43.161Z,30.73
2017-04-03T11:50:48.539Z,27.30
2017-04-03T11:52:52.679Z,27.51
2017-04-03T11:53:57.637Z,31.73
2017-04-03T11:54:57.602Z,28.79
2017-04-03T11:55:57.693Z,26.91
2017-04-03T11:56:57.681Z,24.74
2017-04-03T11:57:57.646Z,28.91
2017-04-03T11:58:57.654Z,28.30
2017-04-03T11:59:57.597Z,29.01
2017-04-03T12:00:58.353Z,34.46
2017-04-03T12:01:58.348Z,32.60
2017-04-03T12:02:58.323Z,30.40
2017-04-03T12:03:58.353Z,32.59
2017-04-03T12:04:58.356Z,31.61
2017-04-03T12:05:58.344Z,30.56
2017-04-03T12:06:58.294Z,35.29
2017-04-03T12:07:58.294Z,34.74
2017-04-03T12:08:58.361Z,32.84
2017-04-03T12:09:58.404Z,29.83
2017-04-03T12:11:11.777Z,30.26
2017-04-03T12:12:11.808Z,32.30
2017-04-03T12:13:12.062Z,32.41
2017-04-03T12:14:12.270Z,33.64
2017-04-03T12:15:12.202Z,28.79
2017-04-03T12:16:12.257Z,31.63
2017-04-03T12:17:12.254Z,30.33
2017-04-03T12:18:12.600Z,31.66
2017-04-03T12:19:12.688Z,32.20
2017-04-03T12:20:13.488Z,27.74
2017-04-03T12:21:13.502Z,26.77
2017-04-03T12:22:14.262Z,31.33
2017-04-03T12:23:14.213Z,26.67
2017-04-03T12:24:14.181Z,30.37
2017-04-03T12:25:14.200Z,30.47
2017-04-03T12:26:14.341Z,29.81
2017-04-03T12:27:14.304Z,29.97
2017-04-03T12:28:13.476Z,29.33
2017-04-03T12:29:12.644Z,32.39
2017-04-03T12:30:11.861Z,29.67
2017-04-03T12:31:12.730Z,29.14
2017-04-03T12:32:12.694Z,30.16
2017-04-03T12:33:12.736Z,28.90
2017-04-03T12:34:12.714Z,32.83
2017-04-03T12:35:12.642Z,29.79
2017-04-03T12:36:12.701Z,32.21
2017-04-03T12:37:12.755Z,29.01
2017-04-03T12:38:12.750Z,28.03
2017-04-03T12:39:12.916Z,29.64
2017-04-03T12:40:12.914Z,29.53
2017-04-03T12:41:12.902Z,30.39
2017-04-03T12:42:12.909Z,29.71
2017-04-03T12:43:12.992Z,27.57
2017-04-03T12:44:13.007Z,29.41
2017-04-03T12:45:12.994Z,27.29
2017-04-03T12:46:13.004Z,26.76
2017-04-03T12:47:13.049Z,27.13
2017-04-03T12:48:13.039Z,24.96
2017-04-03T12:49:13.093Z,27.21
2017-04-03T12:50:13.137Z,28.26
2017-04-03T12:51:13.211Z,28.51
2017-04-03T12:52:13.211Z,28.23
2017-04-03T12:53:13.197Z,26.57
2017-04-03T12:54:13.205Z,25.69
2017-04-03T12:55:13.231Z,24.71
2017-04-03T12:56:13.954Z,26.44
2017-04-03T12:57:13.956Z,26.23
2017-04-03T12:58:15.431Z,27.01